aviador You're here:

RODN Decoded Metar

KADENA in JAPAN
Report Time2017-09-21 18:56:00
UTC Time2017-09-21 19:35:24
Flight Rules vfr VFR
WindCalm
Visibility9999 m
Phenomena:N/A
Clouds:Few 012 Hf
CeilingNone
Temp26°C (ISA +11)
Dew Point26°C (100% RH)
QNH1010 hPa
Density Alt1,995 ft
Elevation148 ft
Report Wrong Elevation
Raw Report
RODN 211856Z AUTO 00000KT 10SM FEW012 26/26 A2984 RMK AO2 SLP110
T02620255 $=

Extra information for RODN:More info

Metar Taf Metar & Taf Last 4 Metars F.Rules Stats Wind Profile Meteogram Temp Stats Airport Information Weather charts Add Link Nearby VenuesMetar ALERT Operation Metar Decoded Social comments